sensor_id;sensor_type;location;lat;lon;timestamp;P1;durP1;ratioP1;P2;durP2;ratioP2
3726;SDS011;1879;45.876;12.300;2023-01-24T00:01:24;4.93;;;4.53;;
3726;SDS011;1879;45.876;12.300;2023-01-24T00:03:52;5.63;;;5.13;;
3726;SDS011;1879;45.876;12.300;2023-01-24T00:06:20;6.00;;;4.93;;
3726;SDS011;1879;45.876;12.300;2023-01-24T00:08:47;4.87;;;4.47;;
3726;SDS011;1879;45.876;12.300;2023-01-24T00:11:14;5.43;;;4.93;;
3726;SDS011;1879;45.876;12.300;2023-01-24T00:13:40;7.23;;;4.77;;
3726;SDS011;1879;45.876;12.300;2023-01-24T00:16:08;4.57;;;4.13;;
3726;SDS011;1879;45.876;12.300;2023-01-24T00:18:38;5.70;;;5.00;;
3726;SDS011;1879;45.876;12.300;2023-01-24T00:21:07;6.70;;;4.80;;
3726;SDS011;1879;45.876;12.300;2023-01-24T00:23:37;4.47;;;4.10;;
3726;SDS011;1879;45.876;12.300;2023-01-24T00:26:04;4.20;;;3.90;;
3726;SDS011;1879;45.876;12.300;2023-01-24T00:28:32;4.33;;;3.93;;
3726;SDS011;1879;45.876;12.300;2023-01-24T00:30:59;5.90;;;4.17;;
3726;SDS011;1879;45.876;12.300;2023-01-24T00:33:26;4.67;;;4.17;;
3726;SDS011;1879;45.876;12.300;2023-01-24T00:35:53;4.93;;;4.50;;
3726;SDS011;1879;45.876;12.300;2023-01-24T00:38:22;5.10;;;4.20;;
3726;SDS011;1879;45.876;12.300;2023-01-24T00:40:49;4.37;;;3.97;;
3726;SDS011;1879;45.876;12.300;2023-01-24T00:43:16;6.00;;;5.50;;
3726;SDS011;1879;45.876;12.300;2023-01-24T00:45:44;6.03;;;5.30;;
3726;SDS011;1879;45.876;12.300;2023-01-24T00:48:12;7.50;;;6.80;;
3726;SDS011;1879;45.876;12.300;2023-01-24T00:50:39;7.63;;;6.93;;
3726;SDS011;1879;45.876;12.300;2023-01-24T00:53:07;6.60;;;5.93;;
3726;SDS011;1879;45.876;12.300;2023-01-24T00:55:39;5.30;;;4.80;;
3726;SDS011;1879;45.876;12.300;2023-01-24T00:58:07;5.77;;;5.17;;
3726;SDS011;1879;45.876;12.300;2023-01-24T01:00:34;6.00;;;5.50;;
3726;SDS011;1879;45.876;12.300;2023-01-24T01:03:02;5.10;;;4.60;;
3726;SDS011;1879;45.876;12.300;2023-01-24T01:05:29;5.30;;;4.80;;
3726;SDS011;1879;45.876;12.300;2023-01-24T01:07:56;5.37;;;4.40;;
3726;SDS011;1879;45.876;12.300;2023-01-24T01:10:24;6.10;;;5.30;;
3726;SDS011;1879;45.876;12.300;2023-01-24T01:12:52;5.70;;;5.10;;
3726;SDS011;1879;45.876;12.300;2023-01-24T01:15:19;5.93;;;5.33;;
3726;SDS011;1879;45.876;12.300;2023-01-24T01:17:46;5.67;;;5.07;;
3726;SDS011;1879;45.876;12.300;2023-01-24T01:20:13;5.03;;;4.53;;
3726;SDS011;1879;45.876;12.300;2023-01-24T01:22:40;5.53;;;5.03;;
3726;SDS011;1879;45.876;12.300;2023-01-24T01:25:07;5.50;;;5.00;;
3726;SDS011;1879;45.876;12.300;2023-01-24T01:27:35;5.23;;;4.80;;
3726;SDS011;1879;45.876;12.300;2023-01-24T01:30:06;5.40;;;4.90;;
3726;SDS011;1879;45.876;12.300;2023-01-24T01:32:36;5.03;;;4.53;;
3726;SDS011;1879;45.876;12.300;2023-01-24T01:35:03;5.23;;;4.70;;
3726;SDS011;1879;45.876;12.300;2023-01-24T01:37:30;5.40;;;4.90;;
3726;SDS011;1879;45.876;12.300;2023-01-24T01:39:57;6.43;;;5.70;;
3726;SDS011;1879;45.876;12.300;2023-01-24T01:42:24;6.13;;;5.10;;
3726;SDS011;1879;45.876;12.300;2023-01-24T01:44:52;6.70;;;5.50;;
3726;SDS011;1879;45.876;12.300;2023-01-24T01:47:23;5.50;;;5.00;;
3726;SDS011;1879;45.876;12.300;2023-01-24T01:49:55;5.43;;;4.93;;
3726;SDS011;1879;45.876;12.300;2023-01-24T01:52:24;5.27;;;4.77;;
3726;SDS011;1879;45.876;12.300;2023-01-24T01:54:57;5.80;;;5.20;;
3726;SDS011;1879;45.876;12.300;2023-01-24T01:57:28;4.67;;;4.27;;
3726;SDS011;1879;45.876;12.300;2023-01-24T01:59:58;5.43;;;4.40;;
3726;SDS011;1879;45.876;12.300;2023-01-24T02:02:29;4.87;;;4.17;;
3726;SDS011;1879;45.876;12.300;2023-01-24T02:04:58;4.40;;;4.03;;
3726;SDS011;1879;45.876;12.300;2023-01-24T02:07:28;4.47;;;4.07;;
3726;SDS011;1879;45.876;12.300;2023-01-24T02:09:59;5.30;;;4.07;;
3726;SDS011;1879;45.876;12.300;2023-01-24T02:12:27;5.10;;;4.00;;
3726;SDS011;1879;45.876;12.300;2023-01-24T02:14:56;4.70;;;4.30;;
3726;SDS011;1879;45.876;12.300;2023-01-24T02:17:47;4.50;;;4.10;;
3726;SDS011;1879;45.876;12.300;2023-01-24T02:20:21;4.90;;;4.47;;
3726;SDS011;1879;45.876;12.300;2023-01-24T02:23:00;4.80;;;4.40;;
3726;SDS011;1879;45.876;12.300;2023-01-24T02:25:36;5.30;;;4.40;;
3726;SDS011;1879;45.876;12.300;2023-01-24T02:28:08;4.63;;;4.10;;
3726;SDS011;1879;45.876;12.300;2023-01-24T02:30:36;4.43;;;4.07;;
3726;SDS011;1879;45.876;12.300;2023-01-24T02:33:10;4.47;;;4.07;;
3726;SDS011;1879;45.876;12.300;2023-01-24T02:35:56;4.23;;;3.83;;
3726;SDS011;1879;45.876;12.300;2023-01-24T02:38:40;3.37;;;3.07;;
3726;SDS011;1879;45.876;12.300;2023-01-24T02:41:09;3.70;;;3.40;;
3726;SDS011;1879;45.876;12.300;2023-01-24T02:43:39;3.77;;;3.47;;
3726;SDS011;1879;45.876;12.300;2023-01-24T02:46:10;4.00;;;3.70;;
3726;SDS011;1879;45.876;12.300;2023-01-24T02:48:37;4.37;;;3.10;;
3726;SDS011;1879;45.876;12.300;2023-01-24T02:51:04;3.37;;;3.07;;
3726;SDS011;1879;45.876;12.300;2023-01-24T02:54:02;2.90;;;2.70;;
3726;SDS011;1879;45.876;12.300;2023-01-24T02:56:29;3.40;;;3.10;;
3726;SDS011;1879;45.876;12.300;2023-01-24T02:59:15;3.20;;;2.90;;
3726;SDS011;1879;45.876;12.300;2023-01-24T03:01:42;3.40;;;3.20;;
3726;SDS011;1879;45.876;12.300;2023-01-24T03:04:09;3.90;;;3.60;;
3726;SDS011;1879;45.876;12.300;2023-01-24T03:06:37;3.83;;;3.50;;
3726;SDS011;1879;45.876;12.300;2023-01-24T03:09:04;3.50;;;3.20;;
3726;SDS011;1879;45.876;12.300;2023-01-24T03:11:43;3.90;;;3.50;;
3726;SDS011;1879;45.876;12.300;2023-01-24T03:14:11;3.77;;;3.47;;
3726;SDS011;1879;45.876;12.300;2023-01-24T03:16:57;4.10;;;3.67;;
3726;SDS011;1879;45.876;12.300;2023-01-24T03:19:41;4.20;;;3.90;;
3726;SDS011;1879;45.876;12.300;2023-01-24T03:22:26;15.13;;;14.10;;
3726;SDS011;1879;45.876;12.300;2023-01-24T03:25:10;10.30;;;9.60;;
3726;SDS011;1879;45.876;12.300;2023-01-24T03:27:55;5.67;;;5.17;;
3726;SDS011;1879;45.876;12.300;2023-01-24T03:30:39;4.40;;;4.00;;
3726;SDS011;1879;45.876;12.300;2023-01-24T03:33:24;4.40;;;4.00;;
3726;SDS011;1879;45.876;12.300;2023-01-24T03:36:09;5.07;;;4.57;;
3726;SDS011;1879;45.876;12.300;2023-01-24T03:38:44;4.43;;;4.03;;
3726;SDS011;1879;45.876;12.300;2023-01-24T03:41:29;6.50;;;3.90;;
3726;SDS011;1879;45.876;12.300;2023-01-24T03:43:56;4.10;;;3.70;;
3726;SDS011;1879;45.876;12.300;2023-01-24T03:46:22;5.00;;;4.50;;
3726;SDS011;1879;45.876;12.300;2023-01-24T03:48:51;4.43;;;4.03;;
3726;SDS011;1879;45.876;12.300;2023-01-24T03:51:20;4.90;;;4.20;;
3726;SDS011;1879;45.876;12.300;2023-01-24T03:54:04;5.03;;;4.60;;
3726;SDS011;1879;45.876;12.300;2023-01-24T03:56:31;4.57;;;3.90;;
3726;SDS011;1879;45.876;12.300;2023-01-24T03:58:58;4.30;;;3.90;;
3726;SDS011;1879;45.876;12.300;2023-01-24T04:01:25;6.13;;;4.50;;
3726;SDS011;1879;45.876;12.300;2023-01-24T04:03:53;5.20;;;4.80;;
3726;SDS011;1879;45.876;12.300;2023-01-24T04:06:20;4.60;;;4.20;;
3726;SDS011;1879;45.876;12.300;2023-01-24T04:08:47;6.37;;;5.07;;
3726;SDS011;1879;45.876;12.300;2023-01-24T04:11:14;7.13;;;4.53;;
3726;SDS011;1879;45.876;12.300;2023-01-24T04:13:41;3.97;;;3.43;;
3726;SDS011;1879;45.876;12.300;2023-01-24T04:16:08;3.77;;;3.40;;
3726;SDS011;1879;45.876;12.300;2023-01-24T04:18:36;4.40;;;3.90;;
3726;SDS011;1879;45.876;12.300;2023-01-24T04:21:04;6.63;;;3.93;;
3726;SDS011;1879;45.876;12.300;2023-01-24T04:23:31;4.87;;;4.30;;
3726;SDS011;1879;45.876;12.300;2023-01-24T04:25:58;4.90;;;4.00;;
3726;SDS011;1879;45.876;12.300;2023-01-24T04:28:26;3.63;;;3.33;;
3726;SDS011;1879;45.876;12.300;2023-01-24T04:30:56;4.10;;;3.70;;
3726;SDS011;1879;45.876;12.300;2023-01-24T04:33:24;4.90;;;4.03;;
3726;SDS011;1879;45.876;12.300;2023-01-24T04:35:51;3.60;;;3.30;;
3726;SDS011;1879;45.876;12.300;2023-01-24T04:38:23;3.97;;;3.57;;
3726;SDS011;1879;45.876;12.300;2023-01-24T04:40:56;5.97;;;3.10;;
3726;SDS011;1879;45.876;12.300;2023-01-24T04:43:23;3.90;;;3.57;;
3726;SDS011;1879;45.876;12.300;2023-01-24T04:45:53;4.30;;;3.70;;
3726;SDS011;1879;45.876;12.300;2023-01-24T04:48:21;3.73;;;3.30;;
3726;SDS011;1879;45.876;12.300;2023-01-24T04:50:50;4.03;;;3.27;;
3726;SDS011;1879;45.876;12.300;2023-01-24T04:53:17;3.67;;;3.37;;
3726;SDS011;1879;45.876;12.300;2023-01-24T04:59:39;5.80;;;5.30;;
3726;SDS011;1879;45.876;12.300;2023-01-24T05:02:01;6.23;;;5.73;;
3726;SDS011;1879;45.876;12.300;2023-01-24T05:04:28;5.47;;;5.03;;
3726;SDS011;1879;45.876;12.300;2023-01-24T05:06:55;5.90;;;5.03;;
3726;SDS011;1879;45.876;12.300;2023-01-24T05:09:23;5.30;;;4.80;;
3726;SDS011;1879;45.876;12.300;2023-01-24T05:11:50;5.33;;;4.83;;
3726;SDS011;1879;45.876;12.300;2023-01-24T05:14:17;7.40;;;5.70;;
3726;SDS011;1879;45.876;12.300;2023-01-24T05:16:44;5.60;;;5.10;;
3726;SDS011;1879;45.876;12.300;2023-01-24T05:19:11;5.47;;;4.97;;
3726;SDS011;1879;45.876;12.300;2023-01-24T05:21:38;5.93;;;5.33;;
3726;SDS011;1879;45.876;12.300;2023-01-24T05:24:08;6.17;;;5.37;;
3726;SDS011;1879;45.876;12.300;2023-01-24T05:26:37;6.43;;;5.70;;
3726;SDS011;1879;45.876;12.300;2023-01-24T05:29:04;5.57;;;5.07;;
3726;SDS011;1879;45.876;12.300;2023-01-24T05:31:31;5.60;;;5.10;;
3726;SDS011;1879;45.876;12.300;2023-01-24T05:33:58;5.93;;;5.43;;
3726;SDS011;1879;45.876;12.300;2023-01-24T05:36:25;6.83;;;6.20;;
3726;SDS011;1879;45.876;12.300;2023-01-24T05:38:52;6.90;;;6.03;;
3726;SDS011;1879;45.876;12.300;2023-01-24T05:41:19;7.60;;;6.90;;
3726;SDS011;1879;45.876;12.300;2023-01-24T05:43:48;7.50;;;6.80;;
3726;SDS011;1879;45.876;12.300;2023-01-24T05:46:16;7.50;;;6.43;;
3726;SDS011;1879;45.876;12.300;2023-01-24T05:48:44;7.50;;;6.80;;
3726;SDS011;1879;45.876;12.300;2023-01-24T05:51:18;7.13;;;6.40;;
3726;SDS011;1879;45.876;12.300;2023-01-24T05:53:45;7.73;;;6.97;;
3726;SDS011;1879;45.876;12.300;2023-01-24T05:56:13;14.73;;;13.23;;
3726;SDS011;1879;45.876;12.300;2023-01-24T05:58:42;10.10;;;9.20;;
3726;SDS011;1879;45.876;12.300;2023-01-24T06:01:12;10.00;;;9.00;;
3726;SDS011;1879;45.876;12.300;2023-01-24T06:03:40;10.03;;;9.07;;
3726;SDS011;1879;45.876;12.300;2023-01-24T06:06:09;10.50;;;9.50;;
3726;SDS011;1879;45.876;12.300;2023-01-24T06:08:37;8.17;;;7.37;;
3726;SDS011;1879;45.876;12.300;2023-01-24T06:11:05;10.50;;;7.67;;
3726;SDS011;1879;45.876;12.300;2023-01-24T06:13:33;9.53;;;8.57;;
3726;SDS011;1879;45.876;12.300;2023-01-24T06:16:02;9.10;;;8.20;;
3726;SDS011;1879;45.876;12.300;2023-01-24T06:18:31;10.40;;;9.30;;
3726;SDS011;1879;45.876;12.300;2023-01-24T06:21:03;9.20;;;7.93;;
3726;SDS011;1879;45.876;12.300;2023-01-24T06:23:32;8.50;;;7.70;;
3726;SDS011;1879;45.876;12.300;2023-01-24T06:25:59;8.20;;;7.33;;
3726;SDS011;1879;45.876;12.300;2023-01-24T06:28:26;6.90;;;5.93;;
3726;SDS011;1879;45.876;12.300;2023-01-24T06:30:56;11.20;;;9.03;;
3726;SDS011;1879;45.876;12.300;2023-01-24T06:33:35;8.73;;;6.97;;
3726;SDS011;1879;45.876;12.300;2023-01-24T06:36:10;12.60;;;10.87;;
3726;SDS011;1879;45.876;12.300;2023-01-24T06:38:47;10.20;;;9.30;;
3726;SDS011;1879;45.876;12.300;2023-01-24T06:41:15;10.23;;;8.50;;
3726;SDS011;1879;45.876;12.300;2023-01-24T06:43:43;10.00;;;9.10;;
3726;SDS011;1879;45.876;12.300;2023-01-24T06:46:11;10.47;;;9.37;;
3726;SDS011;1879;45.876;12.300;2023-01-24T06:48:42;10.03;;;9.13;;
3726;SDS011;1879;45.876;12.300;2023-01-24T06:51:11;10.03;;;9.13;;
3726;SDS011;1879;45.876;12.300;2023-01-24T06:53:39;10.10;;;9.10;;
3726;SDS011;1879;45.876;12.300;2023-01-24T06:56:07;10.07;;;9.20;;
3726;SDS011;1879;45.876;12.300;2023-01-24T06:58:34;11.00;;;9.13;;
3726;SDS011;1879;45.876;12.300;2023-01-24T07:01:01;11.93;;;10.77;;
3726;SDS011;1879;45.876;12.300;2023-01-24T07:03:28;11.60;;;10.13;;
3726;SDS011;1879;45.876;12.300;2023-01-24T07:05:57;19.60;;;16.43;;
3726;SDS011;1879;45.876;12.300;2023-01-24T07:08:23;13.40;;;12.00;;
3726;SDS011;1879;45.876;12.300;2023-01-24T07:10:51;21.93;;;18.20;;
3726;SDS011;1879;45.876;12.300;2023-01-24T07:13:18;13.37;;;12.20;;
3726;SDS011;1879;45.876;12.300;2023-01-24T07:15:45;14.87;;;13.47;;
3726;SDS011;1879;45.876;12.300;2023-01-24T07:18:12;18.50;;;15.07;;
3726;SDS011;1879;45.876;12.300;2023-01-24T07:20:40;11.57;;;10.37;;
3726;SDS011;1879;45.876;12.300;2023-01-24T07:23:13;13.80;;;9.87;;
3726;SDS011;1879;45.876;12.300;2023-01-24T07:25:48;15.73;;;13.63;;
3726;SDS011;1879;45.876;12.300;2023-01-24T07:28:17;13.50;;;12.13;;
3726;SDS011;1879;45.876;12.300;2023-01-24T07:30:45;15.90;;;12.00;;
3726;SDS011;1879;45.876;12.300;2023-01-24T07:33:12;13.00;;;11.73;;
3726;SDS011;1879;45.876;12.300;2023-01-24T07:35:40;12.77;;;11.43;;
3726;SDS011;1879;45.876;12.300;2023-01-24T07:38:07;13.03;;;11.77;;
3726;SDS011;1879;45.876;12.300;2023-01-24T07:40:36;13.80;;;12.10;;
3726;SDS011;1879;45.876;12.300;2023-01-24T07:43:04;15.60;;;14.20;;
3726;SDS011;1879;45.876;12.300;2023-01-24T07:45:31;14.77;;;11.30;;
3726;SDS011;1879;45.876;12.300;2023-01-24T07:48:00;13.83;;;12.10;;
3726;SDS011;1879;45.876;12.300;2023-01-24T07:50:27;12.90;;;11.70;;
3726;SDS011;1879;45.876;12.300;2023-01-24T07:52:56;11.80;;;10.70;;
3726;SDS011;1879;45.876;12.300;2023-01-24T07:55:24;15.33;;;11.77;;
3726;SDS011;1879;45.876;12.300;2023-01-24T07:57:56;19.53;;;13.43;;
3726;SDS011;1879;45.876;12.300;2023-01-24T08:00:24;21.97;;;17.20;;
3726;SDS011;1879;45.876;12.300;2023-01-24T08:02:51;30.10;;;19.30;;
3726;SDS011;1879;45.876;12.300;2023-01-24T08:05:18;17.33;;;15.53;;
3726;SDS011;1879;45.876;12.300;2023-01-24T08:07:45;16.03;;;13.50;;
3726;SDS011;1879;45.876;12.300;2023-01-24T08:10:12;16.13;;;14.53;;
3726;SDS011;1879;45.876;12.300;2023-01-24T08:12:39;13.90;;;12.40;;
3726;SDS011;1879;45.876;12.300;2023-01-24T08:15:08;18.77;;;16.77;;
3726;SDS011;1879;45.876;12.300;2023-01-24T08:17:35;17.27;;;15.40;;
3726;SDS011;1879;45.876;12.300;2023-01-24T08:20:04;19.93;;;16.13;;
3726;SDS011;1879;45.876;12.300;2023-01-24T08:22:32;22.70;;;16.10;;
3726;SDS011;1879;45.876;12.300;2023-01-24T08:24:59;19.47;;;16.50;;
3726;SDS011;1879;45.876;12.300;2023-01-24T08:27:26;18.60;;;16.10;;
3726;SDS011;1879;45.876;12.300;2023-01-24T08:29:53;21.40;;;17.10;;
3726;SDS011;1879;45.876;12.300;2023-01-24T08:32:21;17.97;;;16.07;;
3726;SDS011;1879;45.876;12.300;2023-01-24T08:34:48;20.63;;;17.50;;
3726;SDS011;1879;45.876;12.300;2023-01-24T08:37:17;19.23;;;16.50;;
3726;SDS011;1879;45.876;12.300;2023-01-24T08:39:44;19.70;;;16.20;;
3726;SDS011;1879;45.876;12.300;2023-01-24T08:42:11;14.77;;;13.27;;
3726;SDS011;1879;45.876;12.300;2023-01-24T08:44:38;21.77;;;16.70;;
3726;SDS011;1879;45.876;12.300;2023-01-24T08:47:05;37.37;;;23.43;;
3726;SDS011;1879;45.876;12.300;2023-01-24T08:49:33;21.80;;;18.17;;
3726;SDS011;1879;45.876;12.300;2023-01-24T08:52:00;20.03;;;14.83;;
3726;SDS011;1879;45.876;12.300;2023-01-24T08:54:28;18.00;;;13.70;;
3726;SDS011;1879;45.876;12.300;2023-01-24T08:56:57;16.80;;;12.07;;
3726;SDS011;1879;45.876;12.300;2023-01-24T08:59:24;14.17;;;12.07;;
3726;SDS011;1879;45.876;12.300;2023-01-24T09:01:51;14.03;;;12.60;;
3726;SDS011;1879;45.876;12.300;2023-01-24T09:04:18;17.53;;;13.80;;
3726;SDS011;1879;45.876;12.300;2023-01-24T09:06:47;14.73;;;13.23;;
3726;SDS011;1879;45.876;12.300;2023-01-24T09:09:16;15.00;;;12.80;;
3726;SDS011;1879;45.876;12.300;2023-01-24T09:11:43;14.70;;;12.60;;
3726;SDS011;1879;45.876;12.300;2023-01-24T09:17:14;17.43;;;15.00;;
3726;SDS011;1879;45.876;12.300;2023-01-24T09:20:14;15.07;;;11.00;;
3726;SDS011;1879;45.876;12.300;2023-01-24T09:26:04;16.60;;;13.67;;
3726;SDS011;1879;45.876;12.300;2023-01-24T09:29:23;12.23;;;10.27;;
3726;SDS011;1879;45.876;12.300;2023-01-24T09:32:29;14.50;;;13.00;;
3726;SDS011;1879;45.876;12.300;2023-01-24T09:35:03;13.47;;;12.00;;
3726;SDS011;1879;45.876;12.300;2023-01-24T09:40:50;14.20;;;12.80;;
3726;SDS011;1879;45.876;12.300;2023-01-24T09:43:27;14.07;;;12.00;;
3726;SDS011;1879;45.876;12.300;2023-01-24T09:46:13;13.37;;;10.57;;
3726;SDS011;1879;45.876;12.300;2023-01-24T09:49:02;13.07;;;11.90;;
3726;SDS011;1879;45.876;12.300;2023-01-24T09:51:40;13.93;;;10.10;;
3726;SDS011;1879;45.876;12.300;2023-01-24T09:54:34;12.80;;;10.10;;
3726;SDS011;1879;45.876;12.300;2023-01-24T09:57:22;15.87;;;9.13;;
3726;SDS011;1879;45.876;12.300;2023-01-24T09:59:55;10.97;;;9.87;;
3726;SDS011;1879;45.876;12.300;2023-01-24T10:03:29;10.37;;;9.23;;
3726;SDS011;1879;45.876;12.300;2023-01-24T10:05:25;10.33;;;9.33;;
3726;SDS011;1879;45.876;12.300;2023-01-24T10:08:11;10.50;;;9.40;;
3726;SDS011;1879;45.876;12.300;2023-01-24T10:11:19;9.40;;;7.00;;
3726;SDS011;1879;45.876;12.300;2023-01-24T10:14:08;6.53;;;6.00;;
3726;SDS011;1879;45.876;12.300;2023-01-24T10:20:13;4.60;;;4.20;;
3726;SDS011;1879;45.876;12.300;2023-01-24T10:23:02;5.60;;;5.10;;
3726;SDS011;1879;45.876;12.300;2023-01-24T10:25:38;5.20;;;4.70;;
3726;SDS011;1879;45.876;12.300;2023-01-24T10:28:15;3.90;;;3.60;;
3726;SDS011;1879;45.876;12.300;2023-01-24T10:30:48;4.57;;;4.13;;
3726;SDS011;1879;45.876;12.300;2023-01-24T10:33:24;4.00;;;3.70;;
3726;SDS011;1879;45.876;12.300;2023-01-24T10:35:56;4.67;;;3.67;;
3726;SDS011;1879;45.876;12.300;2023-01-24T10:38:25;3.43;;;2.60;;
3726;SDS011;1879;45.876;12.300;2023-01-24T10:40:55;4.13;;;3.00;;
3726;SDS011;1879;45.876;12.300;2023-01-24T10:43:25;4.33;;;4.00;;
3726;SDS011;1879;45.876;12.300;2023-01-24T10:46:08;3.60;;;3.30;;
3726;SDS011;1879;45.876;12.300;2023-01-24T10:48:45;2.97;;;2.77;;
3726;SDS011;1879;45.876;12.300;2023-01-24T10:51:18;3.30;;;2.93;;
3726;SDS011;1879;45.876;12.300;2023-01-24T10:53:46;4.10;;;3.50;;
3726;SDS011;1879;45.876;12.300;2023-01-24T10:56:14;3.10;;;2.87;;
3726;SDS011;1879;45.876;12.300;2023-01-24T10:58:54;3.73;;;3.30;;
3726;SDS011;1879;45.876;12.300;2023-01-24T11:01:23;3.90;;;3.20;;
3726;SDS011;1879;45.876;12.300;2023-01-24T11:04:01;4.63;;;3.23;;
3726;SDS011;1879;45.876;12.300;2023-01-24T11:06:40;4.60;;;2.60;;
3726;SDS011;1879;45.876;12.300;2023-01-24T11:09:09;4.23;;;3.13;;
3726;SDS011;1879;45.876;12.300;2023-01-24T11:11:39;3.40;;;3.10;;
3726;SDS011;1879;45.876;12.300;2023-01-24T11:14:12;3.60;;;3.10;;
3726;SDS011;1879;45.876;12.300;2023-01-24T11:16:42;3.20;;;2.73;;
3726;SDS011;1879;45.876;12.300;2023-01-24T11:19:22;3.40;;;3.10;;
3726;SDS011;1879;45.876;12.300;2023-01-24T11:21:54;4.63;;;3.47;;
3726;SDS011;1879;45.876;12.300;2023-01-24T11:24:22;7.60;;;4.13;;
3726;SDS011;1879;45.876;12.300;2023-01-24T11:26:51;3.57;;;3.27;;
3726;SDS011;1879;45.876;12.300;2023-01-24T11:29:21;3.63;;;3.33;;
3726;SDS011;1879;45.876;12.300;2023-01-24T11:31:50;3.53;;;3.23;;
3726;SDS011;1879;45.876;12.300;2023-01-24T11:34:37;3.00;;;2.70;;
3726;SDS011;1879;45.876;12.300;2023-01-24T11:37:18;3.67;;;3.30;;
3726;SDS011;1879;45.876;12.300;2023-01-24T11:40:18;3.33;;;3.03;;
3726;SDS011;1879;45.876;12.300;2023-01-24T11:42:54;3.00;;;2.70;;
3726;SDS011;1879;45.876;12.300;2023-01-24T11:45:40;3.00;;;2.80;;
3726;SDS011;1879;45.876;12.300;2023-01-24T11:48:25;2.57;;;2.30;;
3726;SDS011;1879;45.876;12.300;2023-01-24T11:51:02;2.57;;;1.90;;
3726;SDS011;1879;45.876;12.300;2023-01-24T11:53:47;2.20;;;2.00;;
3726;SDS011;1879;45.876;12.300;2023-01-24T11:56:29;2.13;;;1.83;;
3726;SDS011;1879;45.876;12.300;2023-01-24T11:59:09;2.10;;;1.90;;
3726;SDS011;1879;45.876;12.300;2023-01-24T12:01:54;2.10;;;1.50;;
3726;SDS011;1879;45.876;12.300;2023-01-24T12:04:44;1.80;;;1.70;;
3726;SDS011;1879;45.876;12.300;2023-01-24T12:07:28;2.53;;;2.00;;
3726;SDS011;1879;45.876;12.300;2023-01-24T12:10:06;2.43;;;2.10;;
3726;SDS011;1879;45.876;12.300;2023-01-24T12:12:39;2.27;;;1.90;;
3726;SDS011;1879;45.876;12.300;2023-01-24T12:15:17;2.57;;;2.37;;
3726;SDS011;1879;45.876;12.300;2023-01-24T12:17:52;1.97;;;1.87;;
3726;SDS011;1879;45.876;12.300;2023-01-24T12:20:46;1.80;;;1.70;;
3726;SDS011;1879;45.876;12.300;2023-01-24T12:23:20;1.80;;;1.70;;
3726;SDS011;1879;45.876;12.300;2023-01-24T12:25:53;2.37;;;2.17;;
3726;SDS011;1879;45.876;12.300;2023-01-24T12:28:26;1.87;;;1.77;;
3726;SDS011;1879;45.876;12.300;2023-01-24T12:31:00;1.77;;;1.67;;
3726;SDS011;1879;45.876;12.300;2023-01-24T12:33:30;1.80;;;1.70;;
3726;SDS011;1879;45.876;12.300;2023-01-24T12:36:01;2.13;;;1.93;;
3726;SDS011;1879;45.876;12.300;2023-01-24T12:38:34;1.60;;;1.43;;
3726;SDS011;1879;45.876;12.300;2023-01-24T12:41:07;1.90;;;1.53;;
3726;SDS011;1879;45.876;12.300;2023-01-24T12:43:44;1.70;;;1.60;;
3726;SDS011;1879;45.876;12.300;2023-01-24T12:46:20;1.93;;;1.60;;
3726;SDS011;1879;45.876;12.300;2023-01-24T12:48:53;2.73;;;2.00;;
3726;SDS011;1879;45.876;12.300;2023-01-24T12:51:26;3.23;;;2.20;;
3726;SDS011;1879;45.876;12.300;2023-01-24T12:53:59;2.13;;;1.90;;
3726;SDS011;1879;45.876;12.300;2023-01-24T12:56:32;3.03;;;2.57;;
3726;SDS011;1879;45.876;12.300;2023-01-24T12:59:07;2.60;;;2.40;;
3726;SDS011;1879;45.876;12.300;2023-01-24T13:01:44;3.67;;;3.10;;
3726;SDS011;1879;45.876;12.300;2023-01-24T13:04:26;2.43;;;2.17;;
3726;SDS011;1879;45.876;12.300;2023-01-24T13:07:08;3.30;;;2.27;;
3726;SDS011;1879;45.876;12.300;2023-01-24T13:09:44;2.73;;;2.43;;
3726;SDS011;1879;45.876;12.300;2023-01-24T13:12:16;2.63;;;2.43;;
3726;SDS011;1879;45.876;12.300;2023-01-24T13:14:49;2.80;;;2.37;;
3726;SDS011;1879;45.876;12.300;2023-01-24T13:17:27;2.37;;;2.17;;
3726;SDS011;1879;45.876;12.300;2023-01-24T13:20:11;3.27;;;2.40;;
3726;SDS011;1879;45.876;12.300;2023-01-24T13:22:56;2.50;;;2.30;;
3726;SDS011;1879;45.876;12.300;2023-01-24T13:25:40;2.40;;;2.03;;
3726;SDS011;1879;45.876;12.300;2023-01-24T13:28:26;2.20;;;2.10;;
3726;SDS011;1879;45.876;12.300;2023-01-24T13:31:03;3.00;;;2.40;;
3726;SDS011;1879;45.876;12.300;2023-01-24T13:33:40;2.53;;;2.33;;
3726;SDS011;1879;45.876;12.300;2023-01-24T13:36:15;2.30;;;2.07;;
3726;SDS011;1879;45.876;12.300;2023-01-24T13:38:45;2.20;;;2.00;;
3726;SDS011;1879;45.876;12.300;2023-01-24T13:41:16;2.90;;;2.23;;
3726;SDS011;1879;45.876;12.300;2023-01-24T13:43:57;2.30;;;2.10;;
3726;SDS011;1879;45.876;12.300;2023-01-24T13:49:31;2.23;;;2.03;;
3726;SDS011;1879;45.876;12.300;2023-01-24T13:52:00;2.87;;;2.43;;
3726;SDS011;1879;45.876;12.300;2023-01-24T13:54:36;2.90;;;2.60;;
3726;SDS011;1879;45.876;12.300;2023-01-24T13:57:20;2.80;;;2.50;;
3726;SDS011;1879;45.876;12.300;2023-01-24T13:59:57;2.63;;;2.20;;
3726;SDS011;1879;45.876;12.300;2023-01-24T14:02:41;2.57;;;2.37;;
3726;SDS011;1879;45.876;12.300;2023-01-24T14:05:33;2.90;;;2.50;;
3726;SDS011;1879;45.876;12.300;2023-01-24T14:08:13;3.10;;;2.47;;
3726;SDS011;1879;45.876;12.300;2023-01-24T14:10:43;4.17;;;3.00;;
3726;SDS011;1879;45.876;12.300;2023-01-24T14:19:23;3.40;;;3.10;;
3726;SDS011;1879;45.876;12.300;2023-01-24T14:21:55;3.27;;;3.07;;
3726;SDS011;1879;45.876;12.300;2023-01-24T14:24:26;3.30;;;3.00;;
3726;SDS011;1879;45.876;12.300;2023-01-24T14:26:55;3.83;;;3.53;;
3726;SDS011;1879;45.876;12.300;2023-01-24T14:29:26;3.33;;;3.10;;
3726;SDS011;1879;45.876;12.300;2023-01-24T14:32:03;3.60;;;3.30;;
3726;SDS011;1879;45.876;12.300;2023-01-24T14:34:43;2.80;;;2.60;;
3726;SDS011;1879;45.876;12.300;2023-01-24T14:37:14;3.23;;;2.77;;
3726;SDS011;1879;45.876;12.300;2023-01-24T14:39:43;4.27;;;3.63;;
3726;SDS011;1879;45.876;12.300;2023-01-24T14:42:11;5.10;;;4.00;;
3726;SDS011;1879;45.876;12.300;2023-01-24T14:44:41;5.53;;;5.03;;
3726;SDS011;1879;45.876;12.300;2023-01-24T14:47:18;5.50;;;4.60;;
3726;SDS011;1879;45.876;12.300;2023-01-24T14:49:48;5.17;;;4.67;;
3726;SDS011;1879;45.876;12.300;2023-01-24T14:52:17;6.30;;;5.47;;
3726;SDS011;1879;45.876;12.300;2023-01-24T14:54:46;6.83;;;5.20;;
3726;SDS011;1879;45.876;12.300;2023-01-24T14:57:22;5.97;;;5.17;;
3726;SDS011;1879;45.876;12.300;2023-01-24T15:00:00;4.60;;;4.17;;
3726;SDS011;1879;45.876;12.300;2023-01-24T15:02:31;6.10;;;4.70;;
3726;SDS011;1879;45.876;12.300;2023-01-24T15:04:58;8.23;;;5.47;;
3726;SDS011;1879;45.876;12.300;2023-01-24T15:07:25;7.37;;;5.57;;
3726;SDS011;1879;45.876;12.300;2023-01-24T15:09:52;6.13;;;5.53;;
3726;SDS011;1879;45.876;12.300;2023-01-24T15:12:23;7.80;;;5.80;;
3726;SDS011;1879;45.876;12.300;2023-01-24T15:14:54;6.80;;;6.10;;
3726;SDS011;1879;45.876;12.300;2023-01-24T15:17:23;9.87;;;6.73;;
3726;SDS011;1879;45.876;12.300;2023-01-24T15:19:54;7.27;;;6.57;;
3726;SDS011;1879;45.876;12.300;2023-01-24T15:22:24;7.17;;;6.17;;
3726;SDS011;1879;45.876;12.300;2023-01-24T15:24:52;6.27;;;5.70;;
3726;SDS011;1879;45.876;12.300;2023-01-24T15:27:22;9.83;;;6.60;;
3726;SDS011;1879;45.876;12.300;2023-01-24T15:30:15;7.83;;;6.63;;
3726;SDS011;1879;45.876;12.300;2023-01-24T15:32:44;6.10;;;5.50;;
3726;SDS011;1879;45.876;12.300;2023-01-24T15:38:14;7.97;;;6.80;;
3726;SDS011;1879;45.876;12.300;2023-01-24T15:43:40;6.93;;;5.90;;
3726;SDS011;1879;45.876;12.300;2023-01-24T15:46:14;9.50;;;6.47;;
3726;SDS011;1879;45.876;12.300;2023-01-24T15:49:05;9.97;;;6.47;;
3726;SDS011;1879;45.876;12.300;2023-01-24T15:54:48;10.17;;;7.90;;
3726;SDS011;1879;45.876;12.300;2023-01-24T15:57:22;10.67;;;8.63;;
3726;SDS011;1879;45.876;12.300;2023-01-24T15:59:51;11.60;;;9.90;;
3726;SDS011;1879;45.876;12.300;2023-01-24T16:02:20;10.93;;;9.73;;